Airport View

Enter AWOS ICAO identifier for current METAR.

ex. KFNL

KDTW 170853Z 03005KT 10SM FEW220 M05/M07 A3021 RMK AO2 SLP238 T10501067 58013

17 Nov 2019 09:23

Frequency: 133.675

Phone: 734-955-5015

Other Area AWOS: KYIP - KARB - KONZ - KTTF

KDTW 170858Z 1709/1812 08003KT P6SM FEW200 FM171400 13006KT P6SM BKN250 FM172000 18006KT P6SM OVC100 FM180300 17003KT P6SM OVC030